sensor_id;sensor_type;location;lat;lon;timestamp;P1;durP1;ratioP1;P2;durP2;ratioP2
4106;SDS011;21906;50.812;7.132;2023-04-24T00:00:16;1.10;;;0.90;;
4106;SDS011;21906;50.812;7.132;2023-04-24T00:02:42;1.20;;;1.10;;
4106;SDS011;21906;50.812;7.132;2023-04-24T00:05:12;1.53;;;1.00;;
4106;SDS011;21906;50.812;7.132;2023-04-24T00:07:42;1.00;;;0.90;;
4106;SDS011;21906;50.812;7.132;2023-04-24T00:10:09;1.20;;;1.10;;
4106;SDS011;21906;50.812;7.132;2023-04-24T00:12:36;1.10;;;1.00;;
4106;SDS011;21906;50.812;7.132;2023-04-24T00:15:02;1.07;;;0.97;;
4106;SDS011;21906;50.812;7.132;2023-04-24T00:17:28;1.00;;;0.90;;
4106;SDS011;21906;50.812;7.132;2023-04-24T00:19:54;1.40;;;1.00;;
4106;SDS011;21906;50.812;7.132;2023-04-24T00:22:29;1.73;;;0.93;;
4106;SDS011;21906;50.812;7.132;2023-04-24T00:24:55;1.10;;;1.00;;
4106;SDS011;21906;50.812;7.132;2023-04-24T00:27:21;1.00;;;0.90;;
4106;SDS011;21906;50.812;7.132;2023-04-24T00:29:46;1.10;;;1.00;;
4106;SDS011;21906;50.812;7.132;2023-04-24T00:32:12;1.00;;;0.90;;
4106;SDS011;21906;50.812;7.132;2023-04-24T00:34:39;1.00;;;0.90;;
4106;SDS011;21906;50.812;7.132;2023-04-24T00:37:05;1.17;;;1.03;;
4106;SDS011;21906;50.812;7.132;2023-04-24T00:39:31;1.30;;;0.90;;
4106;SDS011;21906;50.812;7.132;2023-04-24T00:41:56;1.33;;;1.03;;
4106;SDS011;21906;50.812;7.132;2023-04-24T00:44:22;1.00;;;0.90;;
4106;SDS011;21906;50.812;7.132;2023-04-24T00:46:49;1.17;;;1.07;;
4106;SDS011;21906;50.812;7.132;2023-04-24T00:49:18;2.33;;;1.00;;
4106;SDS011;21906;50.812;7.132;2023-04-24T00:51:44;1.10;;;0.90;;
4106;SDS011;21906;50.812;7.132;2023-04-24T00:54:10;1.20;;;1.10;;
4106;SDS011;21906;50.812;7.132;2023-04-24T00:56:36;1.03;;;0.93;;
4106;SDS011;21906;50.812;7.132;2023-04-24T00:59:02;0.90;;;0.80;;
4106;SDS011;21906;50.812;7.132;2023-04-24T01:01:29;1.20;;;1.10;;
4106;SDS011;21906;50.812;7.132;2023-04-24T01:03:55;1.07;;;0.97;;
4106;SDS011;21906;50.812;7.132;2023-04-24T01:06:22;1.30;;;0.90;;
4106;SDS011;21906;50.812;7.132;2023-04-24T01:08:52;1.00;;;0.90;;
4106;SDS011;21906;50.812;7.132;2023-04-24T01:11:18;1.80;;;1.00;;
4106;SDS011;21906;50.812;7.132;2023-04-24T01:13:45;1.10;;;1.00;;
4106;SDS011;21906;50.812;7.132;2023-04-24T01:16:11;1.33;;;0.97;;
4106;SDS011;21906;50.812;7.132;2023-04-24T01:18:37;1.13;;;1.00;;
4106;SDS011;21906;50.812;7.132;2023-04-24T01:21:03;1.20;;;1.00;;
4106;SDS011;21906;50.812;7.132;2023-04-24T01:23:30;1.37;;;1.27;;
4106;SDS011;21906;50.812;7.132;2023-04-24T01:25:56;1.20;;;1.10;;
4106;SDS011;21906;50.812;7.132;2023-04-24T01:28:21;2.20;;;1.20;;
4106;SDS011;21906;50.812;7.132;2023-04-24T01:30:47;1.10;;;1.00;;
4106;SDS011;21906;50.812;7.132;2023-04-24T01:33:13;1.43;;;1.33;;
4106;SDS011;21906;50.812;7.132;2023-04-24T01:35:39;1.47;;;1.37;;
4106;SDS011;21906;50.812;7.132;2023-04-24T01:38:05;2.00;;;1.60;;
4106;SDS011;21906;50.812;7.132;2023-04-24T01:40:31;1.97;;;1.70;;
4106;SDS011;21906;50.812;7.132;2023-04-24T01:42:57;2.00;;;1.57;;
4106;SDS011;21906;50.812;7.132;2023-04-24T01:45:23;1.83;;;1.73;;
4106;SDS011;21906;50.812;7.132;2023-04-24T01:47:49;2.20;;;2.00;;
4106;SDS011;21906;50.812;7.132;2023-04-24T01:50:16;2.10;;;1.73;;
4106;SDS011;21906;50.812;7.132;2023-04-24T01:52:42;2.23;;;1.80;;
4106;SDS011;21906;50.812;7.132;2023-04-24T01:55:07;3.90;;;2.07;;
4106;SDS011;21906;50.812;7.132;2023-04-24T01:57:33;2.07;;;1.83;;
4106;SDS011;21906;50.812;7.132;2023-04-24T02:00:00;2.20;;;2.10;;
4106;SDS011;21906;50.812;7.132;2023-04-24T02:02:29;2.03;;;1.93;;
4106;SDS011;21906;50.812;7.132;2023-04-24T02:04:55;2.10;;;2.00;;
4106;SDS011;21906;50.812;7.132;2023-04-24T02:07:21;2.00;;;1.90;;
4106;SDS011;21906;50.812;7.132;2023-04-24T02:09:47;2.13;;;1.93;;
4106;SDS011;21906;50.812;7.132;2023-04-24T02:12:12;2.50;;;2.30;;
4106;SDS011;21906;50.812;7.132;2023-04-24T02:14:38;1.90;;;1.80;;
4106;SDS011;21906;50.812;7.132;2023-04-24T02:17:04;2.23;;;1.90;;
4106;SDS011;21906;50.812;7.132;2023-04-24T02:19:30;2.50;;;2.30;;
4106;SDS011;21906;50.812;7.132;2023-04-24T02:21:56;2.00;;;1.90;;
4106;SDS011;21906;50.812;7.132;2023-04-24T02:24:21;2.73;;;2.30;;
4106;SDS011;21906;50.812;7.132;2023-04-24T02:26:47;3.13;;;2.93;;
4106;SDS011;21906;50.812;7.132;2023-04-24T02:29:12;3.50;;;3.30;;
4106;SDS011;21906;50.812;7.132;2023-04-24T02:31:38;2.57;;;2.47;;
4106;SDS011;21906;50.812;7.132;2023-04-24T02:34:04;3.23;;;3.00;;
4106;SDS011;21906;50.812;7.132;2023-04-24T02:36:29;3.10;;;2.90;;
4106;SDS011;21906;50.812;7.132;2023-04-24T02:38:55;3.60;;;3.30;;
4106;SDS011;21906;50.812;7.132;2023-04-24T02:41:21;5.80;;;3.90;;
4106;SDS011;21906;50.812;7.132;2023-04-24T02:43:46;4.07;;;3.77;;
4106;SDS011;21906;50.812;7.132;2023-04-24T02:46:12;4.33;;;4.03;;
4106;SDS011;21906;50.812;7.132;2023-04-24T02:48:37;5.13;;;4.63;;
4106;SDS011;21906;50.812;7.132;2023-04-24T02:51:03;5.33;;;4.70;;
4106;SDS011;21906;50.812;7.132;2023-04-24T02:53:29;4.80;;;4.30;;
4106;SDS011;21906;50.812;7.132;2023-04-24T02:55:55;4.60;;;4.23;;
4106;SDS011;21906;50.812;7.132;2023-04-24T02:58:21;4.63;;;4.23;;
4106;SDS011;21906;50.812;7.132;2023-04-24T03:00:47;5.63;;;4.97;;
4106;SDS011;21906;50.812;7.132;2023-04-24T03:03:13;5.33;;;4.93;;
4106;SDS011;21906;50.812;7.132;2023-04-24T03:05:39;4.90;;;4.53;;
4106;SDS011;21906;50.812;7.132;2023-04-24T03:08:05;5.27;;;4.77;;
4106;SDS011;21906;50.812;7.132;2023-04-24T03:10:31;5.20;;;4.83;;
4106;SDS011;21906;50.812;7.132;2023-04-24T03:12:57;5.60;;;5.10;;
4106;SDS011;21906;50.812;7.132;2023-04-24T03:15:22;5.27;;;4.80;;
4106;SDS011;21906;50.812;7.132;2023-04-24T03:17:48;5.87;;;5.37;;
4106;SDS011;21906;50.812;7.132;2023-04-24T03:20:14;6.13;;;5.53;;
4106;SDS011;21906;50.812;7.132;2023-04-24T03:22:39;5.83;;;5.37;;
4106;SDS011;21906;50.812;7.132;2023-04-24T03:25:05;5.10;;;4.80;;
4106;SDS011;21906;50.812;7.132;2023-04-24T03:27:33;5.40;;;5.00;;
4106;SDS011;21906;50.812;7.132;2023-04-24T03:29:58;5.17;;;4.77;;
4106;SDS011;21906;50.812;7.132;2023-04-24T03:32:25;5.20;;;4.73;;
4106;SDS011;21906;50.812;7.132;2023-04-24T03:34:51;4.70;;;4.30;;
4106;SDS011;21906;50.812;7.132;2023-04-24T03:37:16;5.60;;;5.10;;
4106;SDS011;21906;50.812;7.132;2023-04-24T03:39:42;5.33;;;4.73;;
4106;SDS011;21906;50.812;7.132;2023-04-24T03:42:08;5.10;;;4.57;;
4106;SDS011;21906;50.812;7.132;2023-04-24T03:44:34;5.33;;;4.83;;
4106;SDS011;21906;50.812;7.132;2023-04-24T03:47:00;4.93;;;4.53;;
4106;SDS011;21906;50.812;7.132;2023-04-24T03:49:26;5.70;;;5.20;;
4106;SDS011;21906;50.812;7.132;2023-04-24T03:51:52;5.57;;;4.93;;
4106;SDS011;21906;50.812;7.132;2023-04-24T03:54:18;5.87;;;5.47;;
4106;SDS011;21906;50.812;7.132;2023-04-24T03:56:44;5.27;;;4.77;;
4106;SDS011;21906;50.812;7.132;2023-04-24T03:59:10;4.93;;;4.63;;
4106;SDS011;21906;50.812;7.132;2023-04-24T04:01:35;5.60;;;5.20;;
4106;SDS011;21906;50.812;7.132;2023-04-24T04:04:03;5.80;;;5.40;;
4106;SDS011;21906;50.812;7.132;2023-04-24T04:06:29;5.27;;;4.87;;
4106;SDS011;21906;50.812;7.132;2023-04-24T04:08:55;4.70;;;4.30;;
4106;SDS011;21906;50.812;7.132;2023-04-24T04:11:21;5.63;;;5.13;;
4106;SDS011;21906;50.812;7.132;2023-04-24T04:13:47;5.60;;;5.20;;
4106;SDS011;21906;50.812;7.132;2023-04-24T04:16:13;6.00;;;5.50;;
4106;SDS011;21906;50.812;7.132;2023-04-24T04:18:39;5.63;;;5.20;;
4106;SDS011;21906;50.812;7.132;2023-04-24T04:21:04;5.30;;;4.90;;
4106;SDS011;21906;50.812;7.132;2023-04-24T04:23:30;5.80;;;5.23;;
4106;SDS011;21906;50.812;7.132;2023-04-24T04:25:56;6.50;;;5.90;;
4106;SDS011;21906;50.812;7.132;2023-04-24T04:28:22;6.47;;;5.97;;
4106;SDS011;21906;50.812;7.132;2023-04-24T04:30:49;5.73;;;5.23;;
4106;SDS011;21906;50.812;7.132;2023-04-24T04:33:18;5.20;;;4.80;;
4106;SDS011;21906;50.812;7.132;2023-04-24T04:35:45;5.50;;;5.00;;
4106;SDS011;21906;50.812;7.132;2023-04-24T04:38:13;5.37;;;4.97;;
4106;SDS011;21906;50.812;7.132;2023-04-24T04:40:40;5.30;;;4.90;;
4106;SDS011;21906;50.812;7.132;2023-04-24T04:43:05;6.27;;;5.67;;
4106;SDS011;21906;50.812;7.132;2023-04-24T04:45:31;5.30;;;4.83;;
4106;SDS011;21906;50.812;7.132;2023-04-24T04:47:57;5.73;;;5.30;;
4106;SDS011;21906;50.812;7.132;2023-04-24T04:50:25;8.20;;;5.50;;
4106;SDS011;21906;50.812;7.132;2023-04-24T04:52:52;6.00;;;5.40;;
4106;SDS011;21906;50.812;7.132;2023-04-24T04:55:17;5.73;;;4.70;;
4106;SDS011;21906;50.812;7.132;2023-04-24T04:57:44;5.67;;;5.20;;
4106;SDS011;21906;50.812;7.132;2023-04-24T05:00:10;5.07;;;4.67;;
4106;SDS011;21906;50.812;7.132;2023-04-24T05:02:37;6.00;;;5.20;;
4106;SDS011;21906;50.812;7.132;2023-04-24T05:05:06;5.90;;;5.43;;
4106;SDS011;21906;50.812;7.132;2023-04-24T05:07:32;5.50;;;5.03;;
4106;SDS011;21906;50.812;7.132;2023-04-24T05:09:58;5.83;;;5.33;;
4106;SDS011;21906;50.812;7.132;2023-04-24T05:12:23;6.03;;;5.53;;
4106;SDS011;21906;50.812;7.132;2023-04-24T05:14:49;5.43;;;5.03;;
4106;SDS011;21906;50.812;7.132;2023-04-24T05:17:15;6.77;;;5.97;;
4106;SDS011;21906;50.812;7.132;2023-04-24T05:19:41;5.43;;;5.03;;
4106;SDS011;21906;50.812;7.132;2023-04-24T05:22:08;5.30;;;4.90;;
4106;SDS011;21906;50.812;7.132;2023-04-24T05:24:34;5.27;;;4.87;;
4106;SDS011;21906;50.812;7.132;2023-04-24T05:27:01;5.30;;;4.90;;
4106;SDS011;21906;50.812;7.132;2023-04-24T05:29:31;5.10;;;4.80;;
4106;SDS011;21906;50.812;7.132;2023-04-24T05:31:58;6.43;;;5.10;;
4106;SDS011;21906;50.812;7.132;2023-04-24T05:34:23;5.47;;;5.00;;
4106;SDS011;21906;50.812;7.132;2023-04-24T05:36:49;5.83;;;5.33;;
4106;SDS011;21906;50.812;7.132;2023-04-24T05:39:16;4.90;;;4.50;;
4106;SDS011;21906;50.812;7.132;2023-04-24T05:41:42;5.73;;;5.13;;
4106;SDS011;21906;50.812;7.132;2023-04-24T05:44:08;5.10;;;4.70;;
4106;SDS011;21906;50.812;7.132;2023-04-24T05:46:33;5.83;;;5.00;;
4106;SDS011;21906;50.812;7.132;2023-04-24T05:48:59;5.53;;;4.43;;
4106;SDS011;21906;50.812;7.132;2023-04-24T05:51:25;4.90;;;4.50;;
4106;SDS011;21906;50.812;7.132;2023-04-24T05:53:51;5.17;;;4.77;;
4106;SDS011;21906;50.812;7.132;2023-04-24T05:56:16;5.40;;;5.00;;
4106;SDS011;21906;50.812;7.132;2023-04-24T05:58:43;5.37;;;4.90;;
4106;SDS011;21906;50.812;7.132;2023-04-24T06:01:09;5.00;;;4.60;;
4106;SDS011;21906;50.812;7.132;2023-04-24T06:03:34;5.77;;;4.70;;
4106;SDS011;21906;50.812;7.132;2023-04-24T06:06:00;4.90;;;4.53;;
4106;SDS011;21906;50.812;7.132;2023-04-24T06:08:26;4.67;;;4.27;;
4106;SDS011;21906;50.812;7.132;2023-04-24T06:10:51;5.17;;;4.70;;
4106;SDS011;21906;50.812;7.132;2023-04-24T06:13:17;4.50;;;4.20;;
4106;SDS011;21906;50.812;7.132;2023-04-24T06:15:43;4.40;;;4.10;;
4106;SDS011;21906;50.812;7.132;2023-04-24T06:18:08;5.57;;;5.07;;
4106;SDS011;21906;50.812;7.132;2023-04-24T06:20:37;5.13;;;4.63;;
4106;SDS011;21906;50.812;7.132;2023-04-24T06:23:03;5.80;;;5.30;;
4106;SDS011;21906;50.812;7.132;2023-04-24T06:25:29;5.97;;;5.47;;
4106;SDS011;21906;50.812;7.132;2023-04-24T06:27:55;7.17;;;5.87;;
4106;SDS011;21906;50.812;7.132;2023-04-24T06:30:21;5.90;;;5.30;;
4106;SDS011;21906;50.812;7.132;2023-04-24T06:32:47;5.83;;;5.33;;
4106;SDS011;21906;50.812;7.132;2023-04-24T06:35:13;6.50;;;5.27;;
4106;SDS011;21906;50.812;7.132;2023-04-24T06:37:39;5.90;;;5.40;;
4106;SDS011;21906;50.812;7.132;2023-04-24T06:40:06;5.60;;;5.20;;
4106;SDS011;21906;50.812;7.132;2023-04-24T06:42:32;5.93;;;5.43;;
4106;SDS011;21906;50.812;7.132;2023-04-24T06:44:59;6.13;;;5.60;;
4106;SDS011;21906;50.812;7.132;2023-04-24T06:47:24;6.30;;;5.70;;
4106;SDS011;21906;50.812;7.132;2023-04-24T06:49:50;6.87;;;5.90;;
4106;SDS011;21906;50.812;7.132;2023-04-24T06:52:17;6.30;;;5.70;;
4106;SDS011;21906;50.812;7.132;2023-04-24T06:54:43;6.13;;;5.63;;
4106;SDS011;21906;50.812;7.132;2023-04-24T06:57:09;9.80;;;5.90;;
4106;SDS011;21906;50.812;7.132;2023-04-24T06:59:35;6.43;;;5.90;;
4106;SDS011;21906;50.812;7.132;2023-04-24T07:02:01;5.90;;;5.40;;
4106;SDS011;21906;50.812;7.132;2023-04-24T07:04:27;5.80;;;5.23;;
4106;SDS011;21906;50.812;7.132;2023-04-24T07:06:53;5.03;;;4.63;;
4106;SDS011;21906;50.812;7.132;2023-04-24T07:09:20;4.27;;;3.97;;
4106;SDS011;21906;50.812;7.132;2023-04-24T07:11:47;3.67;;;3.37;;
4106;SDS011;21906;50.812;7.132;2023-04-24T07:14:13;3.77;;;3.47;;
4106;SDS011;21906;50.812;7.132;2023-04-24T07:16:38;4.40;;;4.00;;
4106;SDS011;21906;50.812;7.132;2023-04-24T07:19:04;4.20;;;3.90;;
4106;SDS011;21906;50.812;7.132;2023-04-24T07:21:30;5.30;;;3.50;;
4106;SDS011;21906;50.812;7.132;2023-04-24T07:23:57;3.70;;;3.50;;
4106;SDS011;21906;50.812;7.132;2023-04-24T07:26:23;3.40;;;2.97;;
4106;SDS011;21906;50.812;7.132;2023-04-24T07:28:48;3.30;;;3.10;;
4106;SDS011;21906;50.812;7.132;2023-04-24T07:31:14;2.73;;;2.53;;
4106;SDS011;21906;50.812;7.132;2023-04-24T07:33:40;3.10;;;2.90;;
4106;SDS011;21906;50.812;7.132;2023-04-24T07:36:05;2.80;;;2.60;;
4106;SDS011;21906;50.812;7.132;2023-04-24T07:38:31;2.60;;;2.40;;
4106;SDS011;21906;50.812;7.132;2023-04-24T07:40:57;2.60;;;2.40;;
4106;SDS011;21906;50.812;7.132;2023-04-24T07:43:22;2.83;;;2.07;;
4106;SDS011;21906;50.812;7.132;2023-04-24T07:45:49;2.23;;;1.80;;
4106;SDS011;21906;50.812;7.132;2023-04-24T07:48:15;2.10;;;2.00;;
4106;SDS011;21906;50.812;7.132;2023-04-24T07:50:42;1.93;;;1.83;;
4106;SDS011;21906;50.812;7.132;2023-04-24T07:53:08;2.13;;;1.80;;
4106;SDS011;21906;50.812;7.132;2023-04-24T07:55:34;1.80;;;1.70;;
4106;SDS011;21906;50.812;7.132;2023-04-24T07:58:00;2.53;;;1.77;;
4106;SDS011;21906;50.812;7.132;2023-04-24T08:00:26;1.97;;;1.77;;
4106;SDS011;21906;50.812;7.132;2023-04-24T08:02:51;2.23;;;1.80;;
4106;SDS011;21906;50.812;7.132;2023-04-24T08:05:17;1.90;;;1.80;;
4106;SDS011;21906;50.812;7.132;2023-04-24T08:07:43;2.00;;;1.90;;
4106;SDS011;21906;50.812;7.132;2023-04-24T08:10:11;1.70;;;1.60;;
4106;SDS011;21906;50.812;7.132;2023-04-24T08:12:37;1.70;;;1.60;;
4106;SDS011;21906;50.812;7.132;2023-04-24T08:15:03;2.07;;;1.87;;
4106;SDS011;21906;50.812;7.132;2023-04-24T08:17:29;2.77;;;2.00;;
4106;SDS011;21906;50.812;7.132;2023-04-24T08:19:55;1.80;;;1.70;;
4106;SDS011;21906;50.812;7.132;2023-04-24T08:22:26;1.67;;;1.57;;
4106;SDS011;21906;50.812;7.132;2023-04-24T08:24:52;1.63;;;1.47;;
4106;SDS011;21906;50.812;7.132;2023-04-24T08:27:18;1.63;;;1.53;;
4106;SDS011;21906;50.812;7.132;2023-04-24T08:29:44;1.93;;;1.50;;
4106;SDS011;21906;50.812;7.132;2023-04-24T08:32:09;1.87;;;1.50;;
4106;SDS011;21906;50.812;7.132;2023-04-24T08:34:35;1.83;;;1.63;;
4106;SDS011;21906;50.812;7.132;2023-04-24T08:37:01;1.63;;;1.53;;
4106;SDS011;21906;50.812;7.132;2023-04-24T08:39:27;2.13;;;1.80;;
4106;SDS011;21906;50.812;7.132;2023-04-24T08:41:53;1.50;;;1.40;;
4106;SDS011;21906;50.812;7.132;2023-04-24T08:44:19;1.97;;;1.87;;
4106;SDS011;21906;50.812;7.132;2023-04-24T08:46:45;1.80;;;1.70;;
4106;SDS011;21906;50.812;7.132;2023-04-24T08:49:13;3.90;;;1.93;;
4106;SDS011;21906;50.812;7.132;2023-04-24T08:51:41;1.70;;;1.50;;
4106;SDS011;21906;50.812;7.132;2023-04-24T08:54:07;1.83;;;1.40;;
4106;SDS011;21906;50.812;7.132;2023-04-24T08:56:33;1.27;;;1.17;;
4106;SDS011;21906;50.812;7.132;2023-04-24T08:59:02;1.50;;;1.40;;
4106;SDS011;21906;50.812;7.132;2023-04-24T09:01:29;3.27;;;1.80;;
4106;SDS011;21906;50.812;7.132;2023-04-24T09:03:58;2.13;;;1.93;;
4106;SDS011;21906;50.812;7.132;2023-04-24T09:06:27;2.30;;;1.93;;
4106;SDS011;21906;50.812;7.132;2023-04-24T09:08:53;2.20;;;2.00;;
4106;SDS011;21906;50.812;7.132;2023-04-24T09:11:20;2.17;;;1.90;;
4106;SDS011;21906;50.812;7.132;2023-04-24T09:13:49;2.37;;;2.17;;
4106;SDS011;21906;50.812;7.132;2023-04-24T09:16:15;2.33;;;2.20;;
4106;SDS011;21906;50.812;7.132;2023-04-24T09:18:40;2.47;;;2.27;;
4106;SDS011;21906;50.812;7.132;2023-04-24T09:21:09;3.03;;;2.37;;
4106;SDS011;21906;50.812;7.132;2023-04-24T09:23:35;2.70;;;2.50;;
4106;SDS011;21906;50.812;7.132;2023-04-24T09:26:01;2.73;;;2.53;;
4106;SDS011;21906;50.812;7.132;2023-04-24T09:28:35;3.07;;;2.80;;
4106;SDS011;21906;50.812;7.132;2023-04-24T09:31:13;3.07;;;2.77;;
4106;SDS011;21906;50.812;7.132;2023-04-24T09:33:55;4.63;;;4.10;;
4106;SDS011;21906;50.812;7.132;2023-04-24T09:36:41;3.50;;;3.20;;
4106;SDS011;21906;50.812;7.132;2023-04-24T09:41:36;5.27;;;3.10;;
4106;SDS011;21906;50.812;7.132;2023-04-24T09:46:40;3.43;;;3.23;;
4106;SDS011;21906;50.812;7.132;2023-04-24T09:49:14;4.83;;;3.43;;
4106;SDS011;21906;50.812;7.132;2023-04-24T09:51:41;4.10;;;3.70;;
4106;SDS011;21906;50.812;7.132;2023-04-24T09:54:14;4.23;;;3.90;;
4106;SDS011;21906;50.812;7.132;2023-04-24T09:56:50;4.43;;;3.63;;
4106;SDS011;21906;50.812;7.132;2023-04-24T09:59:17;5.17;;;3.90;;
4106;SDS011;21906;50.812;7.132;2023-04-24T10:01:44;4.40;;;3.90;;
4106;SDS011;21906;50.812;7.132;2023-04-24T10:04:20;4.33;;;4.03;;
4106;SDS011;21906;50.812;7.132;2023-04-24T10:06:49;4.53;;;4.13;;
4106;SDS011;21906;50.812;7.132;2023-04-24T10:09:17;4.87;;;4.40;;
4106;SDS011;21906;50.812;7.132;2023-04-24T10:11:44;4.23;;;3.93;;
4106;SDS011;21906;50.812;7.132;2023-04-24T10:14:18;4.40;;;4.10;;
4106;SDS011;21906;50.812;7.132;2023-04-24T10:16:45;4.57;;;4.17;;
4106;SDS011;21906;50.812;7.132;2023-04-24T10:19:12;5.03;;;4.53;;
4106;SDS011;21906;50.812;7.132;2023-04-24T10:21:38;4.47;;;3.50;;
4106;SDS011;21906;50.812;7.132;2023-04-24T10:24:14;3.20;;;2.90;;
4106;SDS011;21906;50.812;7.132;2023-04-24T10:26:42;5.67;;;3.80;;
4106;SDS011;21906;50.812;7.132;2023-04-24T10:29:09;3.77;;;3.20;;
4106;SDS011;21906;50.812;7.132;2023-04-24T10:31:37;3.70;;;3.50;;
4106;SDS011;21906;50.812;7.132;2023-04-24T10:34:06;4.00;;;3.60;;
4106;SDS011;21906;50.812;7.132;2023-04-24T10:36:34;5.43;;;4.20;;
4106;SDS011;21906;50.812;7.132;2023-04-24T10:39:02;4.03;;;3.43;;
4106;SDS011;21906;50.812;7.132;2023-04-24T10:41:31;3.67;;;3.37;;
4106;SDS011;21906;50.812;7.132;2023-04-24T10:47:00;3.40;;;3.20;;
4106;SDS011;21906;50.812;7.132;2023-04-24T10:49:29;4.50;;;3.63;;
4106;SDS011;21906;50.812;7.132;2023-04-24T10:51:59;4.63;;;4.23;;
4106;SDS011;21906;50.812;7.132;2023-04-24T10:57:25;5.60;;;4.17;;
4106;SDS011;21906;50.812;7.132;2023-04-24T10:59:51;5.97;;;4.53;;
4106;SDS011;21906;50.812;7.132;2023-04-24T11:02:47;4.40;;;3.50;;
4106;SDS011;21906;50.812;7.132;2023-04-24T11:05:18;5.47;;;4.50;;
4106;SDS011;21906;50.812;7.132;2023-04-24T11:10:44;6.33;;;4.57;;
4106;SDS011;21906;50.812;7.132;2023-04-24T11:13:14;9.37;;;4.67;;
4106;SDS011;21906;50.812;7.132;2023-04-24T11:15:46;4.77;;;4.30;;
4106;SDS011;21906;50.812;7.132;2023-04-24T11:18:38;5.13;;;4.17;;
4106;SDS011;21906;50.812;7.132;2023-04-24T11:21:10;5.17;;;4.67;;
4106;SDS011;21906;50.812;7.132;2023-04-24T11:23:41;5.57;;;4.30;;
4106;SDS011;21906;50.812;7.132;2023-04-24T11:26:11;9.60;;;5.50;;
4106;SDS011;21906;50.812;7.132;2023-04-24T11:28:43;6.60;;;5.43;;
4106;SDS011;21906;50.812;7.132;2023-04-24T11:34:06;5.47;;;5.07;;
4106;SDS011;21906;50.812;7.132;2023-04-24T11:36:34;9.57;;;7.60;;
4106;SDS011;21906;50.812;7.132;2023-04-24T11:39:00;6.60;;;6.10;;
4106;SDS011;21906;50.812;7.132;2023-04-24T11:41:26;7.03;;;5.87;;
4106;SDS011;21906;50.812;7.132;2023-04-24T11:43:52;9.73;;;7.00;;
4106;SDS011;21906;50.812;7.132;2023-04-24T11:46:20;7.47;;;6.70;;
4106;SDS011;21906;50.812;7.132;2023-04-24T11:48:46;9.10;;;6.63;;
4106;SDS011;21906;50.812;7.132;2023-04-24T11:51:12;6.97;;;6.37;;
4106;SDS011;21906;50.812;7.132;2023-04-24T11:53:38;7.90;;;6.37;;
4106;SDS011;21906;50.812;7.132;2023-04-24T11:56:04;8.90;;;6.37;;
4106;SDS011;21906;50.812;7.132;2023-04-24T11:58:37;7.97;;;6.17;;
4106;SDS011;21906;50.812;7.132;2023-04-24T12:01:04;7.20;;;5.53;;
4106;SDS011;21906;50.812;7.132;2023-04-24T12:03:30;10.17;;;5.53;;
4106;SDS011;21906;50.812;7.132;2023-04-24T12:06:06;7.57;;;5.60;;
4106;SDS011;21906;50.812;7.132;2023-04-24T12:08:35;6.83;;;5.30;;
4106;SDS011;21906;50.812;7.132;2023-04-24T12:11:01;7.00;;;6.40;;
4106;SDS011;21906;50.812;7.132;2023-04-24T12:13:28;5.57;;;4.97;;
4106;SDS011;21906;50.812;7.132;2023-04-24T12:15:54;7.53;;;5.27;;
4106;SDS011;21906;50.812;7.132;2023-04-24T12:18:23;10.20;;;6.00;;
4106;SDS011;21906;50.812;7.132;2023-04-24T12:20:49;7.00;;;6.07;;
4106;SDS011;21906;50.812;7.132;2023-04-24T12:23:15;9.27;;;5.90;;
4106;SDS011;21906;50.812;7.132;2023-04-24T12:25:42;11.00;;;6.87;;
4106;SDS011;21906;50.812;7.132;2023-04-24T12:28:12;13.70;;;7.03;;
4106;SDS011;21906;50.812;7.132;2023-04-24T12:30:41;9.60;;;6.57;;
4106;SDS011;21906;50.812;7.132;2023-04-24T12:33:11;11.63;;;6.90;;
4106;SDS011;21906;50.812;7.132;2023-04-24T12:35:36;8.80;;;7.00;;
4106;SDS011;21906;50.812;7.132;2023-04-24T12:38:05;7.47;;;6.67;;
4106;SDS011;21906;50.812;7.132;2023-04-24T12:40:33;7.13;;;6.43;;
4106;SDS011;21906;50.812;7.132;2023-04-24T12:42:58;11.20;;;7.20;;
4106;SDS011;21906;50.812;7.132;2023-04-24T12:45:24;8.60;;;6.40;;
4106;SDS011;21906;50.812;7.132;2023-04-24T12:47:50;8.37;;;6.70;;
4106;SDS011;21906;50.812;7.132;2023-04-24T12:50:16;9.90;;;6.90;;
4106;SDS011;21906;50.812;7.132;2023-04-24T12:52:42;8.83;;;6.90;;
4106;SDS011;21906;50.812;7.132;2023-04-24T12:55:08;10.87;;;7.10;;
4106;SDS011;21906;50.812;7.132;2023-04-24T12:57:35;10.13;;;6.43;;
4106;SDS011;21906;50.812;7.132;2023-04-24T13:00:02;9.63;;;7.47;;
4106;SDS011;21906;50.812;7.132;2023-04-24T13:02:30;9.47;;;6.83;;
4106;SDS011;21906;50.812;7.132;2023-04-24T13:04:57;12.90;;;7.50;;
4106;SDS011;21906;50.812;7.132;2023-04-24T13:07:23;11.13;;;7.60;;
4106;SDS011;21906;50.812;7.132;2023-04-24T13:09:49;7.43;;;6.70;;
4106;SDS011;21906;50.812;7.132;2023-04-24T13:12:16;9.17;;;7.67;;
4106;SDS011;21906;50.812;7.132;2023-04-24T13:14:42;9.87;;;6.80;;
4106;SDS011;21906;50.812;7.132;2023-04-24T13:17:08;9.50;;;6.23;;
4106;SDS011;21906;50.812;7.132;2023-04-24T13:19:38;8.77;;;7.40;;
4106;SDS011;21906;50.812;7.132;2023-04-24T13:22:09;6.67;;;5.97;;
4106;SDS011;21906;50.812;7.132;2023-04-24T13:24:36;6.20;;;5.60;;
4106;SDS011;21906;50.812;7.132;2023-04-24T13:27:02;6.43;;;5.93;;
4106;SDS011;21906;50.812;7.132;2023-04-24T13:29:28;7.90;;;6.30;;
4106;SDS011;21906;50.812;7.132;2023-04-24T13:31:54;6.73;;;5.97;;
4106;SDS011;21906;50.812;7.132;2023-04-24T13:34:21;8.67;;;5.97;;
4106;SDS011;21906;50.812;7.132;2023-04-24T13:36:53;5.90;;;5.40;;
4106;SDS011;21906;50.812;7.132;2023-04-24T13:39:21;7.57;;;6.03;;
4106;SDS011;21906;50.812;7.132;2023-04-24T13:41:47;7.10;;;6.23;;
4106;SDS011;21906;50.812;7.132;2023-04-24T13:44:13;9.80;;;6.27;;
4106;SDS011;21906;50.812;7.132;2023-04-24T13:46:40;10.03;;;6.40;;
4106;SDS011;21906;50.812;7.132;2023-04-24T13:49:06;8.20;;;6.53;;
4106;SDS011;21906;50.812;7.132;2023-04-24T13:51:31;7.50;;;6.63;;
4106;SDS011;21906;50.812;7.132;2023-04-24T13:53:57;6.90;;;6.10;;
4106;SDS011;21906;50.812;7.132;2023-04-24T13:56:24;7.67;;;6.90;;
4106;SDS011;21906;50.812;7.132;2023-04-24T13:58:50;8.90;;;5.33;;
4106;SDS011;21906;50.812;7.132;2023-04-24T14:01:16;8.60;;;5.90;;
4106;SDS011;21906;50.812;7.132;2023-04-24T14:03:42;8.27;;;5.50;;
4106;SDS011;21906;50.812;7.132;2023-04-24T14:06:10;9.27;;;6.20;;
4106;SDS011;21906;50.812;7.132;2023-04-24T14:08:36;7.03;;;6.23;;
4106;SDS011;21906;50.812;7.132;2023-04-24T14:11:02;9.57;;;6.60;;
4106;SDS011;21906;50.812;7.132;2023-04-24T14:13:27;8.30;;;5.93;;
4106;SDS011;21906;50.812;7.132;2023-04-24T14:15:53;6.50;;;5.90;;
4106;SDS011;21906;50.812;7.132;2023-04-24T14:18:19;8.43;;;6.23;;
4106;SDS011;21906;50.812;7.132;2023-04-24T14:20:45;9.27;;;6.70;;
4106;SDS011;21906;50.812;7.132;2023-04-24T14:23:11;6.50;;;5.90;;
4106;SDS011;21906;50.812;7.132;2023-04-24T14:25:36;7.23;;;6.50;;
4106;SDS011;21906;50.812;7.132;2023-04-24T14:28:02;8.60;;;6.40;;
4106;SDS011;21906;50.812;7.132;2023-04-24T14:30:28;11.53;;;7.73;;
4106;SDS011;21906;50.812;7.132;2023-04-24T14:32:53;6.20;;;5.60;;
4106;SDS011;21906;50.812;7.132;2023-04-24T14:35:19;6.60;;;6.00;;
4106;SDS011;21906;50.812;7.132;2023-04-24T14:37:45;7.03;;;6.20;;
4106;SDS011;21906;50.812;7.132;2023-04-24T14:40:10;8.43;;;6.37;;
4106;SDS011;21906;50.812;7.132;2023-04-24T14:42:36;6.10;;;5.60;;
4106;SDS011;21906;50.812;7.132;2023-04-24T14:45:02;8.07;;;5.90;;
4106;SDS011;21906;50.812;7.132;2023-04-24T14:47:28;5.60;;;5.10;;
4106;SDS011;21906;50.812;7.132;2023-04-24T14:49:54;7.10;;;6.23;;
4106;SDS011;21906;50.812;7.132;2023-04-24T14:52:20;8.00;;;5.87;;
4106;SDS011;21906;50.812;7.132;2023-04-24T14:54:46;6.87;;;5.37;;
4106;SDS011;21906;50.812;7.132;2023-04-24T14:57:11;6.10;;;5.60;;
4106;SDS011;21906;50.812;7.132;2023-04-24T14:59:37;6.30;;;5.67;;
4106;SDS011;21906;50.812;7.132;2023-04-24T15:02:03;6.90;;;5.20;;
4106;SDS011;21906;50.812;7.132;2023-04-24T15:04:29;6.00;;;5.40;;
4106;SDS011;21906;50.812;7.132;2023-04-24T15:06:55;9.00;;;6.47;;
4106;SDS011;21906;50.812;7.132;2023-04-24T15:09:21;8.17;;;5.50;;
4106;SDS011;21906;50.812;7.132;2023-04-24T15:11:48;6.07;;;4.93;;
4106;SDS011;21906;50.812;7.132;2023-04-24T15:14:15;5.97;;;5.23;;